createdAt,value
2022-11-24T00:01:07.003Z,98363.41
2022-11-24T00:03:33.719Z,98365.25
2022-11-24T00:06:07.864Z,98380.81
2022-11-24T00:08:35.621Z,98380.28
2022-11-24T00:11:11.363Z,98388.44
2022-11-24T00:13:41.071Z,98389.22
2022-11-24T00:16:24.714Z,98396.84
2022-11-24T00:18:53.015Z,98398.97
2022-11-24T00:21:20.526Z,98402.13
2022-11-24T00:23:48.176Z,98407.38
2022-11-24T00:26:15.887Z,98416.34
2022-11-24T00:28:43.668Z,98420.03
2022-11-24T00:31:27.816Z,98434.00
2022-11-24T00:33:57.123Z,98428.19
2022-11-24T00:36:25.830Z,98424.53
2022-11-24T00:38:58.240Z,98429.00
2022-11-24T00:41:26.556Z,98432.16
2022-11-24T00:43:54.087Z,98434.00
2022-11-24T00:46:21.309Z,98432.94
2022-11-24T00:48:48.222Z,98452.16
2022-11-24T00:51:16.873Z,98444.25
2022-11-24T00:53:44.324Z,98438.97
2022-11-24T00:56:12.045Z,98453.47
2022-11-24T00:58:39.291Z,98449.25
2022-11-24T01:01:07.413Z,98450.84
2022-11-24T01:03:34.189Z,98464.00
2022-11-24T01:06:09.362Z,98476.63
2022-11-24T01:08:37.781Z,98474.50
2022-11-24T01:11:24.795Z,98484.53
2022-11-24T01:14:00.141Z,98487.66
2022-11-24T01:16:31.504Z,98491.63
2022-11-24T01:18:58.385Z,98490.84
2022-11-24T01:21:25.059Z,98495.28
2022-11-24T01:23:51.609Z,98508.44
2022-11-24T01:26:21.905Z,98509.22
2022-11-24T01:28:53.753Z,98511.59
2022-11-24T01:31:20.328Z,98516.84
2022-11-24T01:33:46.845Z,98525.03
2022-11-24T01:36:13.562Z,98527.66
2022-11-24T01:38:40.124Z,98532.41
2022-11-24T01:41:15.000Z,98530.00
2022-11-24T01:43:43.321Z,98539.75
2022-11-24T01:46:46.580Z,98550.00
2022-11-24T01:49:19.058Z,98556.03
2022-11-24T01:51:57.859Z,98556.53
2022-11-24T01:54:29.803Z,98567.34
2022-11-24T01:57:02.903Z,98575.22
2022-11-24T01:59:29.513Z,98576.53
2022-11-24T02:01:56.996Z,98580.22
2022-11-24T02:04:29.491Z,98582.03
2022-11-24T02:06:59.189Z,98578.63
2022-11-24T02:09:32.413Z,98587.00
2022-11-24T02:12:00.991Z,98592.81
2022-11-24T02:14:28.027Z,98595.97
2022-11-24T02:16:54.536Z,98593.56
2022-11-24T02:19:31.146Z,98609.34
2022-11-24T02:21:57.742Z,98609.84
2022-11-24T02:24:52.132Z,98609.84
2022-11-24T02:27:20.071Z,98615.38
2022-11-24T02:29:48.022Z,98623.28
2022-11-24T02:32:16.017Z,98631.44
2022-11-24T02:34:42.552Z,98633.50
2022-11-24T02:37:09.075Z,98634.81
2022-11-24T02:39:35.636Z,98639.28
2022-11-24T02:42:07.395Z,98648.22
2022-11-24T02:44:42.201Z,98644.53
2022-11-24T02:47:12.024Z,98648.97
2022-11-24T02:49:39.071Z,98649.28
2022-11-24T02:52:05.947Z,98659.22
2022-11-24T02:54:32.932Z,98678.97
2022-11-24T02:56:59.865Z,98677.13
2022-11-24T02:59:26.417Z,98679.97
2022-11-24T03:01:52.964Z,98676.28
2022-11-24T03:04:19.534Z,98686.56
2022-11-24T03:06:46.040Z,98690.47
2022-11-24T03:09:12.583Z,98698.38
2022-11-24T03:11:39.328Z,98695.72
2022-11-24T03:14:06.471Z,98700.19
2022-11-24T03:16:33.897Z,98688.59
2022-11-24T03:19:01.044Z,98691.22
2022-11-24T03:21:27.628Z,98716.97
2022-11-24T03:23:54.536Z,98698.03
2022-11-24T03:26:22.849Z,98702.22
2022-11-24T03:28:49.489Z,98718.03
2022-11-24T03:31:16.482Z,98717.22
2022-11-24T03:33:43.059Z,98715.09
2022-11-24T03:36:09.821Z,98732.97
2022-11-24T03:38:36.409Z,98729.56
2022-11-24T03:41:02.955Z,98747.41
2022-11-24T03:43:29.462Z,98745.78
2022-11-24T03:45:56.631Z,98745.56
2022-11-24T03:48:23.342Z,98741.34
2022-11-24T03:50:57.767Z,98746.28
2022-11-24T03:53:26.789Z,98747.06
2022-11-24T03:55:53.761Z,98747.06
2022-11-24T03:58:20.598Z,98736.53
2022-11-24T04:00:52.282Z,98734.19
2022-11-24T04:03:19.361Z,98744.69
2022-11-24T04:05:46.577Z,98744.94
2022-11-24T04:08:13.120Z,98746.75
2022-11-24T04:10:40.375Z,98760.97
2022-11-24T04:13:17.518Z,98760.97
2022-11-24T04:15:44.838Z,98776.19
2022-11-24T04:18:12.457Z,98778.84
2022-11-24T04:20:40.108Z,98784.31
2022-11-24T04:23:07.279Z,98791.66
2022-11-24T04:25:34.014Z,98783.22
2022-11-24T04:28:00.789Z,98795.56
2022-11-24T04:30:28.718Z,98798.47
2022-11-24T04:32:55.677Z,98800.03
2022-11-24T04:35:22.181Z,98795.53
2022-11-24T04:37:48.677Z,98797.13
2022-11-24T04:40:15.836Z,98804.44
2022-11-24T04:42:42.385Z,98803.63
2022-11-24T04:45:09.297Z,98808.09
2022-11-24T04:47:35.821Z,98814.41
2022-11-24T04:50:02.432Z,98813.63
2022-11-24T04:52:30.292Z,98820.16
2022-11-24T04:54:56.824Z,98824.13
2022-11-24T04:57:25.980Z,98824.88
2022-11-24T04:59:53.208Z,98834.59
2022-11-24T05:02:20.804Z,98834.59
2022-11-24T05:04:47.428Z,98834.81
2022-11-24T05:07:18.387Z,98832.19
2022-11-24T05:10:05.153Z,98831.97
2022-11-24T05:12:31.712Z,98832.44
2022-11-24T05:15:02.559Z,98844.28
2022-11-24T05:17:31.509Z,98837.72
2022-11-24T05:19:58.787Z,98844.81
2022-11-24T05:22:26.968Z,98838.50
2022-11-24T05:24:53.552Z,98844.81
2022-11-24T05:27:20.243Z,98841.38
2022-11-24T05:29:46.716Z,98851.06
2022-11-24T05:32:13.387Z,98853.66
2022-11-24T05:34:39.930Z,98856.00
2022-11-24T05:37:06.984Z,98861.78
2022-11-24T05:39:35.015Z,98857.31
2022-11-24T05:42:22.666Z,98851.28
2022-11-24T05:44:49.284Z,98858.38
2022-11-24T05:47:15.789Z,98865.44
2022-11-24T05:49:42.535Z,98859.88
2022-11-24T05:52:09.367Z,98863.06
2022-11-24T05:54:36.064Z,98868.56
2022-11-24T05:57:02.953Z,98866.16
2022-11-24T05:59:29.573Z,98865.16
2022-11-24T06:01:56.190Z,98862.53
2022-11-24T06:04:22.781Z,98860.69
2022-11-24T06:06:49.298Z,98865.69
2022-11-24T06:09:15.769Z,98857.81
2022-11-24T06:11:42.391Z,98870.94
2022-11-24T06:14:11.522Z,98872.78
2022-11-24T06:16:38.563Z,98868.78
2022-11-24T06:19:05.190Z,98880.66
2022-11-24T06:21:31.895Z,98879.88
2022-11-24T06:23:58.641Z,98881.44
2022-11-24T06:26:25.218Z,98884.06
2022-11-24T06:28:51.772Z,98889.31
2022-11-24T06:31:18.668Z,98878.34
2022-11-24T06:33:45.466Z,98886.44
2022-11-24T06:36:14.030Z,98883.59
2022-11-24T06:38:40.624Z,98889.66
2022-11-24T06:41:13.235Z,98884.63
2022-11-24T06:43:39.992Z,98895.16
2022-11-24T06:46:07.257Z,98899.09
2022-11-24T06:48:34.299Z,98887.00
2022-11-24T06:51:02.434Z,98888.38
2022-11-24T06:53:33.700Z,98890.44
2022-11-24T06:56:02.001Z,98906.19
2022-11-24T06:58:28.516Z,98913.28
2022-11-24T07:00:55.095Z,98908.56
2022-11-24T07:03:21.852Z,98915.66
2022-11-24T07:05:48.773Z,98921.50
2022-11-24T07:08:17.953Z,98931.22
2022-11-24T07:10:45.515Z,98935.69
2022-11-24T07:13:12.002Z,98934.63
2022-11-24T07:15:38.499Z,98947.78
2022-11-24T07:18:05.132Z,98949.34
2022-11-24T07:20:31.802Z,98950.13
2022-11-24T07:22:59.099Z,98953.34
2022-11-24T07:25:26.237Z,98954.13
2022-11-24T07:28:00.047Z,98958.13
2022-11-24T07:30:28.297Z,98958.91
2022-11-24T07:33:02.835Z,98971.00
2022-11-24T07:35:30.424Z,98971.81
2022-11-24T07:37:58.271Z,98970.22
2022-11-24T07:40:26.669Z,98967.81
2022-11-24T07:42:54.128Z,98975.47
2022-11-24T07:45:21.383Z,98972.59
2022-11-24T07:47:47.863Z,98970.44
2022-11-24T07:50:14.741Z,98988.84
2022-11-24T07:52:41.235Z,98993.06
2022-11-24T07:55:08.260Z,98974.69
2022-11-24T07:57:35.320Z,98981.28
2022-11-24T08:00:02.305Z,98989.16
2022-11-24T08:02:28.820Z,98985.25
2022-11-24T08:04:55.386Z,98981.59
2022-11-24T08:07:22.053Z,98980.53
2022-11-24T08:09:50.391Z,98994.25
2022-11-24T08:12:21.481Z,98986.94
2022-11-24T08:14:50.498Z,98981.91
2022-11-24T08:17:18.135Z,98984.84
2022-11-24T08:19:45.041Z,98976.97
2022-11-24T08:22:11.781Z,98968.34
2022-11-24T08:24:38.490Z,98966.50
2022-11-24T08:27:05.220Z,98980.22
2022-11-24T08:29:32.013Z,98972.06
2022-11-24T08:31:58.647Z,98962.34
2022-11-24T08:34:27.229Z,98961.09
2022-11-24T08:36:53.775Z,98960.03
2022-11-24T08:39:20.515Z,98956.97
2022-11-24T08:41:47.125Z,98953.59
2022-11-24T08:44:15.938Z,98959.16
2022-11-24T08:46:42.497Z,98956.06
2022-11-24T08:49:09.850Z,98958.19
2022-11-24T08:51:36.590Z,98955.88
2022-11-24T08:54:03.387Z,98957.22
2022-11-24T08:56:32.329Z,98960.72
2022-11-24T08:58:59.926Z,98959.41
2022-11-24T09:01:27.362Z,98964.44
2022-11-24T09:03:54.363Z,98972.38
2022-11-24T09:06:27.469Z,98984.25
2022-11-24T09:08:55.490Z,98990.84
2022-11-24T09:11:22.636Z,98996.44
2022-11-24T09:13:49.260Z,98997.53
2022-11-24T09:16:18.264Z,98994.66
2022-11-24T09:18:45.727Z,99006.03
2022-11-24T09:21:18.397Z,99011.84
2022-11-24T09:23:47.364Z,99008.72
2022-11-24T09:26:19.687Z,98975.59
2022-11-24T09:28:47.021Z,98976.94
2022-11-24T09:31:15.948Z,98958.84
2022-11-24T09:33:43.610Z,98953.06
2022-11-24T09:36:10.566Z,98947.06
2022-11-24T09:38:37.268Z,98940.75
2022-11-24T09:41:22.562Z,98937.63
2022-11-24T09:43:51.949Z,98941.34
2022-11-24T09:46:30.473Z,98943.50
2022-11-24T09:48:58.551Z,98949.84
2022-11-24T09:51:31.259Z,98940.63
2022-11-24T09:54:12.368Z,98933.81
2022-11-24T09:56:41.779Z,98930.69
2022-11-24T09:59:21.624Z,98936.25
2022-11-24T10:01:50.189Z,98931.81
2022-11-24T10:04:21.133Z,98924.22
2022-11-24T10:06:55.889Z,98930.06
2022-11-24T10:09:31.686Z,98926.94
2022-11-24T10:12:23.593Z,98923.53
2022-11-24T10:15:09.009Z,98932.03
2022-11-24T10:17:54.421Z,98919.94
2022-11-24T10:20:53.057Z,98929.44
2022-11-24T10:23:39.805Z,98902.38
2022-11-24T10:26:40.673Z,98905.03
2022-11-24T10:29:20.362Z,98900.56
2022-11-24T10:31:50.657Z,98891.88
2022-11-24T10:34:21.095Z,98896.66
2022-11-24T10:37:09.096Z,98885.88
2022-11-24T10:39:59.640Z,98903.31
2022-11-24T10:42:28.411Z,98897.03
2022-11-24T10:45:12.157Z,98888.09
2022-11-24T10:47:39.611Z,98890.47
2022-11-24T10:50:06.273Z,98894.75
2022-11-24T10:52:41.097Z,98898.97
2022-11-24T10:55:07.813Z,98883.97
2022-11-24T10:57:36.960Z,98877.91
2022-11-24T11:00:23.544Z,98867.91
2022-11-24T11:02:51.631Z,98855.00
2022-11-24T11:05:31.602Z,98867.91
2022-11-24T11:08:21.900Z,98847.34
2022-11-24T11:10:51.633Z,98845.25
2022-11-24T11:13:25.493Z,98840.53
2022-11-24T11:15:52.648Z,98824.44
2022-11-24T11:18:21.094Z,98826.28
2022-11-24T11:20:53.081Z,98821.78
2022-11-24T11:23:25.629Z,98831.59
2022-11-24T11:26:18.899Z,98823.66
2022-11-24T11:31:15.626Z,98821.81
2022-11-24T11:35:02.846Z,98821.03
2022-11-24T11:37:32.907Z,98826.59
2022-11-24T11:40:00.504Z,98807.53
2022-11-24T11:45:28.448Z,98793.28
2022-11-24T11:48:01.088Z,98777.69
2022-11-24T11:51:21.329Z,98774.25
2022-11-24T11:53:48.403Z,98764.72
2022-11-24T11:56:29.418Z,98761.53
2022-11-24T11:59:30.896Z,98752.53
2022-11-24T12:02:32.710Z,98740.13
2022-11-24T12:05:11.566Z,98728.19
2022-11-24T12:08:06.365Z,98727.91
2022-11-24T12:10:35.985Z,98732.13
2022-11-24T12:13:30.268Z,98728.13
2022-11-24T12:16:04.026Z,98717.31
2022-11-24T12:18:56.355Z,98717.28
2022-11-24T12:21:32.732Z,98697.44
2022-11-24T12:23:59.235Z,98691.88
2022-11-24T12:26:40.987Z,98679.69
2022-11-24T12:29:44.822Z,98675.97
2022-11-24T12:32:19.717Z,98678.38
2022-11-24T12:35:10.235Z,98673.31
2022-11-24T12:38:06.190Z,98677.00
2022-11-24T12:41:18.164Z,98658.69
2022-11-24T12:43:51.528Z,98671.38
2022-11-24T12:46:28.458Z,98679.56
2022-11-24T12:49:16.623Z,98668.44
2022-11-24T12:51:47.467Z,98657.31
2022-11-24T12:54:17.526Z,98657.28
2022-11-24T12:56:53.949Z,98641.91
2022-11-24T12:59:39.899Z,98640.56
2022-11-24T13:02:31.372Z,98624.94
2022-11-24T13:05:20.441Z,98613.03
2022-11-24T13:07:50.015Z,98608.53
2022-11-24T13:10:55.425Z,98587.81
2022-11-24T13:13:16.500Z,98582.25
2022-11-24T13:18:54.003Z,98585.38
2022-11-24T13:21:42.807Z,98568.63
2022-11-24T13:24:19.409Z,98566.75
2022-11-24T13:26:52.943Z,98557.19
2022-11-24T13:29:28.609Z,98542.84
2022-11-24T13:32:15.620Z,98532.47
2022-11-24T13:34:49.899Z,98525.03
2022-11-24T13:37:28.828Z,98521.97
2022-11-24T13:40:14.083Z,98515.34
2022-11-24T13:43:07.768Z,98495.78
2022-11-24T13:45:54.490Z,98493.13
2022-11-24T13:48:21.685Z,98488.34
2022-11-24T13:50:51.830Z,98483.56
2022-11-24T13:53:44.073Z,98477.47
2022-11-24T13:56:13.728Z,98466.59
2022-11-24T13:58:44.894Z,98475.31
2022-11-24T14:01:24.784Z,98463.16
2022-11-24T14:04:33.848Z,98461.03
2022-11-24T14:09:53.440Z,98445.41
2022-11-24T14:12:22.696Z,98432.44
2022-11-24T14:14:55.802Z,98442.75
2022-11-24T14:17:23.599Z,98445.13
2022-11-24T14:19:52.793Z,98441.66
2022-11-24T14:22:26.751Z,98433.72
2022-11-24T14:24:58.102Z,98441.66
2022-11-24T14:27:37.249Z,98428.41
2022-11-24T14:30:09.600Z,98430.03
2022-11-24T14:32:37.783Z,98438.75
2022-11-24T14:35:23.423Z,98432.66
2022-11-24T14:37:50.070Z,98424.72
2022-11-24T14:40:42.912Z,98425.50
2022-11-24T14:43:19.785Z,98417.56
2022-11-24T14:45:55.511Z,98417.56
2022-11-24T14:48:28.069Z,98410.69
2022-11-24T14:51:11.545Z,98388.44
2022-11-24T14:53:42.638Z,98382.84
2022-11-24T14:56:09.190Z,98390.78
2022-11-24T14:58:41.731Z,98480.06
2022-11-24T15:01:37.978Z,98560.31
2022-11-24T15:05:02.092Z,98543.97
2022-11-24T15:07:27.743Z,98537.44
2022-11-24T15:10:00.041Z,98552.09
2022-11-24T15:12:28.734Z,98559.28
2022-11-24T15:15:00.241Z,98556.97
2022-11-24T15:17:29.208Z,98544.59
2022-11-24T15:20:02.037Z,98522.91
2022-11-24T15:22:43.818Z,98503.38
2022-11-24T15:25:33.473Z,98528.34
2022-11-24T15:28:01.553Z,98527.88
2022-11-24T15:30:28.460Z,98514.69
2022-11-24T15:32:57.238Z,98503.09
2022-11-24T15:35:30.828Z,98477.19
2022-11-24T15:37:57.953Z,98474.31
2022-11-24T15:40:25.197Z,98482.91
2022-11-24T15:42:54.078Z,98495.22
2022-11-24T15:45:22.368Z,98501.34
2022-11-24T15:47:48.869Z,98500.56
2022-11-24T15:50:15.989Z,98497.16
2022-11-24T15:52:43.126Z,98507.50
2022-11-24T15:55:36.583Z,98521.31
2022-11-24T15:58:03.042Z,98512.09
2022-11-24T16:00:29.612Z,98513.72
2022-11-24T16:02:56.105Z,98521.13
2022-11-24T16:05:22.659Z,98516.69
2022-11-24T16:07:49.239Z,98507.72
2022-11-24T16:10:26.359Z,98522.78
2022-11-24T16:12:53.108Z,98520.97
2022-11-24T16:15:20.291Z,98536.31
2022-11-24T16:17:46.920Z,98542.91
2022-11-24T16:20:13.753Z,98569.31
2022-11-24T16:22:40.464Z,98565.63
2022-11-24T16:25:07.705Z,98570.91
2022-11-24T16:27:34.239Z,98578.31
2022-11-24T16:30:01.741Z,98585.72
2022-11-24T16:32:28.466Z,98575.94
2022-11-24T16:34:54.977Z,98585.19
2022-11-24T16:37:21.767Z,98585.47
2022-11-24T16:39:50.334Z,98581.75
2022-11-24T16:42:17.258Z,98582.28
2022-11-24T16:44:43.820Z,98585.22
2022-11-24T16:47:12.641Z,98575.19
2022-11-24T16:49:39.411Z,98572.56
2022-11-24T16:52:05.889Z,98570.44
2022-11-24T16:54:32.857Z,98574.44
2022-11-24T16:57:00.092Z,98578.41
2022-11-24T16:59:26.568Z,98582.88
2022-11-24T17:01:53.296Z,98591.06
2022-11-24T17:04:19.925Z,98585.25
2022-11-24T17:06:46.476Z,98583.41
2022-11-24T17:09:12.964Z,98587.13
2022-11-24T17:11:39.593Z,98585.56
2022-11-24T17:14:06.349Z,98594.78
2022-11-24T17:16:33.138Z,98595.03
2022-11-24T17:18:59.835Z,98604.50
2022-11-24T17:21:27.856Z,98605.84
2022-11-24T17:23:56.265Z,98611.94
2022-11-24T17:26:23.791Z,98617.72
2022-11-24T17:28:50.284Z,98618.78
2022-11-24T17:31:25.847Z,98626.97
2022-11-24T17:33:55.532Z,98617.19
2022-11-24T17:36:22.284Z,98624.59
2022-11-24T17:38:52.254Z,98637.53
2022-11-24T17:41:19.740Z,98671.28
2022-11-24T17:43:50.352Z,98712.19
2022-11-24T17:46:17.431Z,98710.84
2022-11-24T17:48:44.327Z,98707.69
2022-11-24T17:51:13.351Z,98687.38
2022-11-24T17:53:42.174Z,98655.19
2022-11-24T17:56:12.673Z,98637.50
2022-11-24T17:58:42.920Z,98637.78
2022-11-24T18:01:11.538Z,98640.44
2022-11-24T18:03:42.018Z,98642.00
2022-11-24T18:06:13.646Z,98641.50
2022-11-24T18:08:42.120Z,98644.66
2022-11-24T18:11:12.946Z,98656.00
2022-11-24T18:13:56.727Z,98658.38
2022-11-24T18:16:28.214Z,98654.69
2022-11-24T18:19:07.872Z,98655.72
2022-11-24T18:21:35.372Z,98661.25
2022-11-24T18:24:01.995Z,98663.13
2022-11-24T18:26:28.661Z,98670.47
2022-11-24T18:28:55.249Z,98661.25
2022-11-24T18:31:22.432Z,98680.78
2022-11-24T18:33:49.086Z,98674.19
2022-11-24T18:36:19.653Z,98677.88
2022-11-24T18:38:46.300Z,98677.06
2022-11-24T18:41:14.558Z,98673.66
2022-11-24T18:43:41.688Z,98684.19
2022-11-24T18:46:14.493Z,98676.00
2022-11-24T18:48:41.828Z,98676.28
2022-11-24T18:51:14.321Z,98680.22
2022-11-24T18:53:42.723Z,98690.53
2022-11-24T18:56:13.502Z,98691.56
2022-11-24T18:58:40.285Z,98693.16
2022-11-24T19:01:14.404Z,98700.00
2022-11-24T19:03:48.790Z,98701.06
2022-11-24T19:06:37.445Z,98703.16
2022-11-24T19:09:12.996Z,98692.09
2022-11-24T19:11:43.028Z,98701.31
2022-11-24T19:14:12.895Z,98698.94
2022-11-24T19:16:40.595Z,98708.44
2022-11-24T19:19:08.217Z,98711.63
2022-11-24T19:21:37.648Z,98710.06
2022-11-24T19:24:06.341Z,98699.50
2022-11-24T19:26:35.067Z,98705.81
2022-11-24T19:29:02.717Z,98706.34
2022-11-24T19:31:29.905Z,98708.72
2022-11-24T19:33:58.439Z,98706.34
2022-11-24T19:36:26.313Z,98706.34
2022-11-24T19:38:57.337Z,98715.31
2022-11-24T19:41:29.497Z,98733.50
2022-11-24T19:43:57.924Z,98736.69
2022-11-24T19:46:27.285Z,98748.81
2022-11-24T19:48:56.993Z,98747.75
2022-11-24T19:51:26.179Z,98754.34
2022-11-24T19:53:53.428Z,98760.16
2022-11-24T19:56:22.484Z,98751.19
2022-11-24T19:58:50.011Z,98755.91
2022-11-24T20:01:19.938Z,98761.47
2022-11-24T20:03:49.508Z,98752.75
2022-11-24T20:06:16.434Z,98767.00
2022-11-24T20:08:43.735Z,98754.84
2022-11-24T20:11:16.133Z,98742.19
2022-11-24T20:13:44.658Z,98745.34
2022-11-24T20:16:17.922Z,98746.66
2022-11-24T20:18:46.772Z,98745.88
2022-11-24T20:21:19.003Z,98753.25
2022-11-24T20:23:51.837Z,98746.66
2022-11-24T20:26:21.033Z,98744.28
2022-11-24T20:28:47.781Z,98732.69
2022-11-24T20:31:17.997Z,98734.25
2022-11-24T20:33:45.178Z,98739.25
2022-11-24T20:36:29.159Z,98740.84
2022-11-24T20:38:56.374Z,98736.88
2022-11-24T20:41:32.000Z,98736.09
2022-11-24T20:44:00.086Z,98730.03
2022-11-24T20:46:30.709Z,98724.75
2022-11-24T20:48:57.606Z,98728.97
2022-11-24T20:51:29.757Z,98722.38
2022-11-24T20:53:58.960Z,98715.25
2022-11-24T20:56:32.680Z,98720.28
2022-11-24T20:59:00.201Z,98723.44
2022-11-24T21:01:35.237Z,98725.28
2022-11-24T21:04:02.935Z,98722.41
2022-11-24T21:06:29.767Z,98718.72
2022-11-24T21:09:01.969Z,98722.13
2022-11-24T21:11:30.360Z,98713.94
2022-11-24T21:13:57.219Z,98716.06
2022-11-24T21:16:26.459Z,98710.81
2022-11-24T21:18:57.877Z,98713.16
2022-11-24T21:21:26.173Z,98720.00
2022-11-24T21:23:52.741Z,98701.81
2022-11-24T21:26:19.755Z,98708.41
2022-11-24T21:28:47.518Z,98688.63
2022-11-24T21:31:17.673Z,98677.03
2022-11-24T21:33:49.228Z,98686.78
2022-11-24T21:36:22.021Z,98693.63
2022-11-24T21:38:53.489Z,98678.09
2022-11-24T21:41:21.141Z,98693.91
2022-11-24T21:43:47.973Z,98693.91
2022-11-24T21:46:14.803Z,98701.00
2022-11-24T21:48:42.491Z,98693.91
2022-11-24T21:51:13.635Z,98691.00
2022-11-24T21:53:41.186Z,98684.94
2022-11-24T21:56:12.954Z,98704.41
2022-11-24T21:58:48.256Z,98706.81
2022-11-24T22:01:17.157Z,98707.06
2022-11-24T22:03:44.049Z,98714.16
2022-11-24T22:06:10.801Z,98714.16
2022-11-24T22:08:38.764Z,98716.28
2022-11-24T22:11:13.792Z,98707.06
2022-11-24T22:13:41.041Z,98713.91
2022-11-24T22:16:10.892Z,98702.84
2022-11-24T22:18:40.183Z,98709.97
2022-11-24T22:21:10.020Z,98696.50
2022-11-24T22:23:36.825Z,98691.22
2022-11-24T22:26:11.408Z,98689.63
2022-11-24T22:28:38.432Z,98667.50
2022-11-24T22:31:10.794Z,98656.19
2022-11-24T22:33:37.581Z,98667.50
2022-11-24T22:36:04.673Z,98669.59
2022-11-24T22:38:32.431Z,98676.72
2022-11-24T22:41:04.589Z,98657.47
2022-11-24T22:43:32.813Z,98668.81
2022-11-24T22:46:11.155Z,98657.75
2022-11-24T22:48:38.331Z,98671.94
2022-11-24T22:51:07.312Z,98683.28
2022-11-24T22:53:34.312Z,98683.56
2022-11-24T22:56:05.669Z,98686.97
2022-11-24T22:58:33.161Z,98699.38
2022-11-24T23:01:07.097Z,98701.22
2022-11-24T23:03:35.101Z,98718.88
2022-11-24T23:06:03.256Z,98718.88
2022-11-24T23:08:30.387Z,98719.66
2022-11-24T23:11:01.767Z,98714.13
2022-11-24T23:13:28.681Z,98711.47
2022-11-24T23:16:07.107Z,98708.31
2022-11-24T23:18:33.967Z,98695.66
2022-11-24T23:21:14.179Z,98700.44
2022-11-24T23:23:41.249Z,98698.84
2022-11-24T23:26:10.732Z,98685.41
2022-11-24T23:28:37.979Z,98686.97
2022-11-24T23:31:10.038Z,98683.31
2022-11-24T23:33:37.291Z,98681.47
2022-11-24T23:36:12.161Z,98682.25
2022-11-24T23:38:39.096Z,98682.78
2022-11-24T23:41:10.039Z,98681.75
2022-11-24T23:43:38.301Z,98679.63
2022-11-24T23:46:07.969Z,98698.63
2022-11-24T23:48:35.708Z,98693.34
2022-11-24T23:51:13.461Z,98701.25
2022-11-24T23:53:40.657Z,98703.13
2022-11-24T23:56:08.499Z,98705.47
2022-11-24T23:58:35.057Z,98699.41
